sensor_id;sensor_type;location;lat;lon;timestamp;pressure;altitude;pressure_sealevel;temperature;humidity
67740;BME280;54536;50.090;14.420;2024-03-07T00:02:19;100080.19;;;8.67;53.17
67740;BME280;54536;50.090;14.420;2024-03-07T00:04:46;100075.97;;;8.77;52.96
67740;BME280;54536;50.090;14.420;2024-03-07T00:07:12;100082.47;;;8.72;52.91
67740;BME280;54536;50.090;14.420;2024-03-07T00:09:38;100074.94;;;8.67;54.09
67740;BME280;54536;50.090;14.420;2024-03-07T00:12:05;100074.28;;;8.76;52.56
67740;BME280;54536;50.090;14.420;2024-03-07T00:14:33;100074.06;;;8.79;52.49
67740;BME280;54536;50.090;14.420;2024-03-07T00:17:01;100076.59;;;8.81;53.10
67740;BME280;54536;50.090;14.420;2024-03-07T00:19:28;100083.19;;;8.86;53.08
67740;BME280;54536;50.090;14.420;2024-03-07T00:21:58;100073.75;;;8.84;52.96
67740;BME280;54536;50.090;14.420;2024-03-07T00:24:25;100073.66;;;8.73;52.90
67740;BME280;54536;50.090;14.420;2024-03-07T00:26:53;100075.44;;;8.72;53.76
67740;BME280;54536;50.090;14.420;2024-03-07T00:29:19;100072.38;;;8.78;53.14
67740;BME280;54536;50.090;14.420;2024-03-07T00:31:46;100070.72;;;8.77;53.87
67740;BME280;54536;50.090;14.420;2024-03-07T00:34:13;100068.88;;;8.54;53.31
67740;BME280;54536;50.090;14.420;2024-03-07T00:36:42;100072.31;;;8.67;53.45
67740;BME280;54536;50.090;14.420;2024-03-07T00:39:08;100074.94;;;8.67;53.57
67740;BME280;54536;50.090;14.420;2024-03-07T00:41:38;100066.09;;;8.81;53.22
67740;BME280;54536;50.090;14.420;2024-03-07T00:44:05;100063.91;;;8.62;53.51
67740;BME280;54536;50.090;14.420;2024-03-07T00:46:32;100070.13;;;8.61;53.81
67740;BME280;54536;50.090;14.420;2024-03-07T00:48:58;100064.75;;;8.75;54.19
67740;BME280;54536;50.090;14.420;2024-03-07T00:51:24;100072.31;;;8.67;53.90
67740;BME280;54536;50.090;14.420;2024-03-07T00:53:50;100061.25;;;8.87;53.39
67740;BME280;54536;50.090;14.420;2024-03-07T00:56:16;100064.22;;;8.83;53.49
67740;BME280;54536;50.090;14.420;2024-03-07T00:58:42;100066.31;;;8.78;53.41
67740;BME280;54536;50.090;14.420;2024-03-07T01:01:09;100063.47;;;8.81;54.13
67740;BME280;54536;50.090;14.420;2024-03-07T01:03:37;100055.50;;;8.70;53.58
67740;BME280;54536;50.090;14.420;2024-03-07T01:06:03;100057.41;;;8.67;54.65
67740;BME280;54536;50.090;14.420;2024-03-07T01:08:29;100053.72;;;8.83;53.82
67740;BME280;54536;50.090;14.420;2024-03-07T01:10:58;100051.13;;;8.70;53.92
67740;BME280;54536;50.090;14.420;2024-03-07T01:13:24;100052.69;;;8.73;54.78
67740;BME280;54536;50.090;14.420;2024-03-07T01:15:50;100047.31;;;8.87;54.94
67740;BME280;54536;50.090;14.420;2024-03-07T01:18:16;100043.13;;;8.84;54.67
67740;BME280;54536;50.090;14.420;2024-03-07T01:20:43;100046.56;;;8.85;54.19
67740;BME280;54536;50.090;14.420;2024-03-07T01:23:09;100046.56;;;8.85;54.13
67740;BME280;54536;50.090;14.420;2024-03-07T01:25:35;100041.03;;;8.77;54.77
67740;BME280;54536;50.090;14.420;2024-03-07T01:28:01;100040.72;;;8.81;54.63
67740;BME280;54536;50.090;14.420;2024-03-07T01:30:27;100035.47;;;8.81;55.13
67740;BME280;54536;50.090;14.420;2024-03-07T01:32:56;100036.06;;;8.85;55.76
67740;BME280;54536;50.090;14.420;2024-03-07T01:35:22;100037.66;;;8.87;56.34
67740;BME280;54536;50.090;14.420;2024-03-07T01:37:48;100035.25;;;8.84;56.68
67740;BME280;54536;50.090;14.420;2024-03-07T01:40:14;100035.25;;;8.84;57.11
67740;BME280;54536;50.090;14.420;2024-03-07T01:42:40;100036.25;;;8.95;57.36
67740;BME280;54536;50.090;14.420;2024-03-07T01:45:07;100033.38;;;8.86;57.59
67740;BME280;54536;50.090;14.420;2024-03-07T01:47:35;100024.63;;;8.86;57.42
67740;BME280;54536;50.090;14.420;2024-03-07T01:50:05;100034.00;;;8.77;57.45
67740;BME280;54536;50.090;14.420;2024-03-07T01:52:32;100035.59;;;8.80;58.22
67740;BME280;54536;50.090;14.420;2024-03-07T01:54:58;100032.19;;;8.90;57.65
67740;BME280;54536;50.090;14.420;2024-03-07T01:57:25;100033.53;;;8.96;57.22
67740;BME280;54536;50.090;14.420;2024-03-07T01:59:51;100030.75;;;8.86;57.71
67740;BME280;54536;50.090;14.420;2024-03-07T02:02:17;100032.19;;;8.90;58.06
67740;BME280;54536;50.090;14.420;2024-03-07T02:04:44;100027.66;;;8.93;58.42
67740;BME280;54536;50.090;14.420;2024-03-07T02:07:10;100021.34;;;8.95;57.90
67740;BME280;54536;50.090;14.420;2024-03-07T02:09:39;100017.84;;;8.83;58.26
67740;BME280;54536;50.090;14.420;2024-03-07T02:12:05;100020.25;;;8.86;58.70
67740;BME280;54536;50.090;14.420;2024-03-07T02:14:32;100016.94;;;8.72;58.41
67740;BME280;54536;50.090;14.420;2024-03-07T02:16:58;100019.13;;;8.78;58.74
67740;BME280;54536;50.090;14.420;2024-03-07T02:19:25;100014.25;;;8.84;59.48
67740;BME280;54536;50.090;14.420;2024-03-07T02:21:51;100011.53;;;8.86;58.82
67740;BME280;54536;50.090;14.420;2024-03-07T02:24:17;100016.44;;;8.90;59.17
67740;BME280;54536;50.090;14.420;2024-03-07T02:26:43;100010.44;;;9.01;59.30
67740;BME280;54536;50.090;14.420;2024-03-07T02:29:10;100014.66;;;8.91;58.75
67740;BME280;54536;50.090;14.420;2024-03-07T02:31:36;100009.59;;;9.01;58.50
67740;BME280;54536;50.090;14.420;2024-03-07T02:34:03;100010.16;;;8.93;59.56
67740;BME280;54536;50.090;14.420;2024-03-07T02:36:30;99998.13;;;9.02;58.95
67740;BME280;54536;50.090;14.420;2024-03-07T02:38:56;100002.28;;;8.93;59.33
67740;BME280;54536;50.090;14.420;2024-03-07T02:41:22;99999.75;;;8.91;59.85
67740;BME280;54536;50.090;14.420;2024-03-07T02:43:49;100002.81;;;8.85;59.52
67740;BME280;54536;50.090;14.420;2024-03-07T02:46:15;100009.63;;;8.88;60.32
67740;BME280;54536;50.090;14.420;2024-03-07T02:48:42;99999.94;;;9.01;60.06
67740;BME280;54536;50.090;14.420;2024-03-07T02:51:08;100001.72;;;9.01;59.24
67740;BME280;54536;50.090;14.420;2024-03-07T02:53:34;99995.66;;;9.00;59.29
67740;BME280;54536;50.090;14.420;2024-03-07T02:55:59;99999.22;;;8.99;59.13
67740;BME280;54536;50.090;14.420;2024-03-07T02:58:26;99994.41;;;8.93;59.32
67740;BME280;54536;50.090;14.420;2024-03-07T03:00:58;99997.53;;;8.98;59.63
67740;BME280;54536;50.090;14.420;2024-03-07T03:03:29;99995.56;;;8.89;60.03
67740;BME280;54536;50.090;14.420;2024-03-07T03:05:59;100000.31;;;8.84;60.08
67740;BME280;54536;50.090;14.420;2024-03-07T03:08:28;99988.97;;;8.96;59.39
67740;BME280;54536;50.090;14.420;2024-03-07T03:10:55;100001.69;;;8.89;59.92
67740;BME280;54536;50.090;14.420;2024-03-07T03:13:24;99992.25;;;8.87;60.25
67740;BME280;54536;50.090;14.420;2024-03-07T03:15:50;99996.19;;;8.93;60.49
67740;BME280;54536;50.090;14.420;2024-03-07T03:18:16;99998.03;;;9.03;59.53
67740;BME280;54536;50.090;14.420;2024-03-07T03:20:43;99991.44;;;8.98;59.78
67740;BME280;54536;50.090;14.420;2024-03-07T03:23:10;99997.75;;;8.95;59.82
67740;BME280;54536;50.090;14.420;2024-03-07T03:25:39;99999.44;;;8.96;59.76
67740;BME280;54536;50.090;14.420;2024-03-07T03:28:06;99995.56;;;8.89;60.03
67740;BME280;54536;50.090;14.420;2024-03-07T03:30:39;99999.84;;;9.03;59.68
67740;BME280;54536;50.090;14.420;2024-03-07T03:33:07;99996.19;;;8.93;60.21
67740;BME280;54536;50.090;14.420;2024-03-07T03:35:34;99994.06;;;8.98;59.70
67740;BME280;54536;50.090;14.420;2024-03-07T03:38:00;99994.63;;;8.90;59.70
67740;BME280;54536;50.090;14.420;2024-03-07T03:40:26;99987.81;;;8.87;60.18
67740;BME280;54536;50.090;14.420;2024-03-07T03:42:53;99999.75;;;8.67;60.25
67740;BME280;54536;50.090;14.420;2024-03-07T03:45:19;99987.03;;;8.98;60.09
67740;BME280;54536;50.090;14.420;2024-03-07T03:47:45;99996.13;;;9.05;59.59
67740;BME280;54536;50.090;14.420;2024-03-07T03:50:12;99994.13;;;9.09;59.39
67740;BME280;54536;50.090;14.420;2024-03-07T03:52:40;99991.84;;;9.04;59.88
67740;BME280;54536;50.090;14.420;2024-03-07T03:55:08;99998.50;;;8.97;59.51
67740;BME280;54536;50.090;14.420;2024-03-07T03:57:41;99992.81;;;9.03;60.08
67740;BME280;54536;50.090;14.420;2024-03-07T04:00:09;99993.28;;;9.08;59.57
67740;BME280;54536;50.090;14.420;2024-03-07T04:02:43;99994.47;;;9.04;59.47
67740;BME280;54536;50.090;14.420;2024-03-07T04:05:11;99993.97;;;8.99;59.95
67740;BME280;54536;50.090;14.420;2024-03-07T04:07:40;99991.81;;;8.93;59.87
67740;BME280;54536;50.090;14.420;2024-03-07T04:10:08;99997.22;;;9.03;59.75
67740;BME280;54536;50.090;14.420;2024-03-07T04:12:36;99994.25;;;9.07;59.40
67740;BME280;54536;50.090;14.420;2024-03-07T04:15:07;99987.47;;;8.92;59.91
67740;BME280;54536;50.090;14.420;2024-03-07T04:17:37;99990.72;;;8.96;59.85
67740;BME280;54536;50.090;14.420;2024-03-07T04:20:05;99993.72;;;9.02;60.19
67740;BME280;54536;50.090;14.420;2024-03-07T04:22:35;99992.84;;;8.90;60.64
67740;BME280;54536;50.090;14.420;2024-03-07T04:25:01;99983.31;;;8.89;60.22
67740;BME280;54536;50.090;14.420;2024-03-07T04:27:28;99986.81;;;9.01;60.08
67740;BME280;54536;50.090;14.420;2024-03-07T04:29:54;99991.75;;;9.06;59.49
67740;BME280;54536;50.090;14.420;2024-03-07T04:32:20;99989.78;;;8.97;59.57
67740;BME280;54536;50.090;14.420;2024-03-07T04:34:46;99988.03;;;8.84;59.87
67740;BME280;54536;50.090;14.420;2024-03-07T04:37:13;99987.44;;;8.81;60.09
67740;BME280;54536;50.090;14.420;2024-03-07T04:39:39;99985.19;;;8.87;59.71
67740;BME280;54536;50.090;14.420;2024-03-07T04:42:07;99989.75;;;8.73;59.77
67740;BME280;54536;50.090;14.420;2024-03-07T04:44:35;99989.41;;;8.90;59.80
67740;BME280;54536;50.090;14.420;2024-03-07T04:47:02;99996.31;;;8.91;59.55
67740;BME280;54536;50.090;14.420;2024-03-07T04:49:30;99993.47;;;8.94;58.90
67740;BME280;54536;50.090;14.420;2024-03-07T04:51:58;99993.50;;;9.05;58.87
67740;BME280;54536;50.090;14.420;2024-03-07T04:54:26;99995.75;;;8.99;58.40
67740;BME280;54536;50.090;14.420;2024-03-07T04:56:53;99995.28;;;9.05;58.41
67740;BME280;54536;50.090;14.420;2024-03-07T04:59:21;99997.31;;;9.01;57.90
67740;BME280;54536;50.090;14.420;2024-03-07T05:01:49;99997.91;;;9.05;57.61
67740;BME280;54536;50.090;14.420;2024-03-07T05:04:17;99998.09;;;8.90;57.81
67740;BME280;54536;50.090;14.420;2024-03-07T05:06:43;100006.53;;;8.83;55.85
67740;BME280;54536;50.090;14.420;2024-03-07T05:09:10;100005.31;;;9.00;53.72
67740;BME280;54536;50.090;14.420;2024-03-07T05:11:49;100002.50;;;8.90;53.01
67740;BME280;54536;50.090;14.420;2024-03-07T05:14:18;100014.44;;;8.94;52.51
67740;BME280;54536;50.090;14.420;2024-03-07T05:16:45;100011.38;;;9.00;51.46
67740;BME280;54536;50.090;14.420;2024-03-07T05:19:11;100008.63;;;9.02;52.01
67740;BME280;54536;50.090;14.420;2024-03-07T05:21:37;100018.63;;;8.97;51.02
67740;BME280;54536;50.090;14.420;2024-03-07T05:24:05;100020.66;;;8.93;49.96
67740;BME280;54536;50.090;14.420;2024-03-07T05:26:32;100017.84;;;8.83;49.92
67740;BME280;54536;50.090;14.420;2024-03-07T05:29:09;100019.78;;;8.93;49.91
67740;BME280;54536;50.090;14.420;2024-03-07T05:31:37;100022.13;;;8.84;48.65
67740;BME280;54536;50.090;14.420;2024-03-07T05:34:04;100028.22;;;8.85;48.92
67740;BME280;54536;50.090;14.420;2024-03-07T05:36:37;100024.91;;;8.70;48.42
67740;BME280;54536;50.090;14.420;2024-03-07T05:39:11;100027.25;;;8.86;48.02
67740;BME280;54536;50.090;14.420;2024-03-07T05:41:38;100027.50;;;8.83;47.65
67740;BME280;54536;50.090;14.420;2024-03-07T05:44:05;100035.25;;;8.84;47.44
67740;BME280;54536;50.090;14.420;2024-03-07T05:46:39;100029.03;;;8.85;47.23
67740;BME280;54536;50.090;14.420;2024-03-07T05:49:15;100032.19;;;8.90;47.24
67740;BME280;54536;50.090;14.420;2024-03-07T05:51:43;100032.06;;;8.92;46.83
67740;BME280;54536;50.090;14.420;2024-03-07T05:54:13;100040.50;;;8.84;46.24
67740;BME280;54536;50.090;14.420;2024-03-07T05:56:40;100048.22;;;8.86;47.10
67740;BME280;54536;50.090;14.420;2024-03-07T05:59:08;100039.75;;;8.82;47.66
67740;BME280;54536;50.090;14.420;2024-03-07T06:01:38;100047.63;;;8.82;47.32
67740;BME280;54536;50.090;14.420;2024-03-07T06:04:06;100041.66;;;8.80;46.97
67740;BME280;54536;50.090;14.420;2024-03-07T06:06:34;100044.34;;;8.91;46.73
67740;BME280;54536;50.090;14.420;2024-03-07T06:09:03;100055.88;;;8.89;47.17
67740;BME280;54536;50.090;14.420;2024-03-07T06:11:38;100048.75;;;8.91;47.14
67740;BME280;54536;50.090;14.420;2024-03-07T06:14:06;100049.09;;;8.86;47.81
67740;BME280;54536;50.090;14.420;2024-03-07T06:16:37;100044.03;;;8.96;48.80
67740;BME280;54536;50.090;14.420;2024-03-07T06:19:05;100049.81;;;8.88;49.79
67740;BME280;54536;50.090;14.420;2024-03-07T06:21:34;100053.81;;;8.81;50.88
67740;BME280;54536;50.090;14.420;2024-03-07T06:24:01;100045.41;;;8.89;50.79
67740;BME280;54536;50.090;14.420;2024-03-07T06:26:29;100051.72;;;8.86;50.95
67740;BME280;54536;50.090;14.420;2024-03-07T06:29:07;100050.63;;;8.89;51.38
67740;BME280;54536;50.090;14.420;2024-03-07T06:31:34;100054.66;;;8.82;51.05
67740;BME280;54536;50.090;14.420;2024-03-07T06:34:03;100046.69;;;8.83;51.31
67740;BME280;54536;50.090;14.420;2024-03-07T06:36:30;100055.47;;;8.82;50.96
67740;BME280;54536;50.090;14.420;2024-03-07T06:38:55;100055.41;;;8.84;49.65
67740;BME280;54536;50.090;14.420;2024-03-07T06:41:22;100053.84;;;8.68;49.84
67740;BME280;54536;50.090;14.420;2024-03-07T06:43:48;100052.38;;;8.77;49.86
67740;BME280;54536;50.090;14.420;2024-03-07T06:46:19;100050.16;;;8.84;50.56
67740;BME280;54536;50.090;14.420;2024-03-07T06:48:45;100047.31;;;8.87;49.05
67740;BME280;54536;50.090;14.420;2024-03-07T06:51:12;100043.16;;;8.96;48.98
67740;BME280;54536;50.090;14.420;2024-03-07T06:53:39;100054.75;;;8.93;48.39
67740;BME280;54536;50.090;14.420;2024-03-07T06:56:05;100057.25;;;8.95;49.10
67740;BME280;54536;50.090;14.420;2024-03-07T06:58:32;100063.75;;;8.89;49.86
67740;BME280;54536;50.090;14.420;2024-03-07T07:00:58;100063.22;;;8.97;49.30
67740;BME280;54536;50.090;14.420;2024-03-07T07:03:26;100058.91;;;8.96;49.04
67740;BME280;54536;50.090;14.420;2024-03-07T07:05:54;100062.63;;;8.93;48.99
67740;BME280;54536;50.090;14.420;2024-03-07T07:08:20;100070.47;;;8.93;50.23
67740;BME280;54536;50.090;14.420;2024-03-07T07:10:47;100067.13;;;8.91;49.48
67740;BME280;54536;50.090;14.420;2024-03-07T07:13:13;100074.66;;;8.96;49.56
67740;BME280;54536;50.090;14.420;2024-03-07T07:15:40;100068.06;;;8.90;48.31
67740;BME280;54536;50.090;14.420;2024-03-07T07:18:06;100078.78;;;8.87;48.39
67740;BME280;54536;50.090;14.420;2024-03-07T07:20:33;100073.09;;;8.93;47.55
67740;BME280;54536;50.090;14.420;2024-03-07T07:23:02;100073.59;;;8.98;47.48
67740;BME280;54536;50.090;14.420;2024-03-07T07:25:30;100075.00;;;8.78;47.10
67740;BME280;54536;50.090;14.420;2024-03-07T07:27:56;100074.88;;;8.93;47.16
67740;BME280;54536;50.090;14.420;2024-03-07T07:30:23;100071.31;;;8.94;47.42
67740;BME280;54536;50.090;14.420;2024-03-07T07:32:51;100078.13;;;8.96;45.94
67740;BME280;54536;50.090;14.420;2024-03-07T07:35:18;100074.50;;;8.73;45.82
67740;BME280;54536;50.090;14.420;2024-03-07T07:37:46;100070.56;;;8.91;45.22
67740;BME280;54536;50.090;14.420;2024-03-07T07:40:19;100070.53;;;9.04;45.60
67740;BME280;54536;50.090;14.420;2024-03-07T07:42:46;100069.06;;;9.13;44.72
67740;BME280;54536;50.090;14.420;2024-03-07T07:45:15;100078.31;;;9.06;44.58
67740;BME280;54536;50.090;14.420;2024-03-07T07:47:44;100066.72;;;8.84;44.24
67740;BME280;54536;50.090;14.420;2024-03-07T07:50:12;100070.13;;;8.98;44.58
67740;BME280;54536;50.090;14.420;2024-03-07T07:52:44;100074.00;;;9.05;43.72
67740;BME280;54536;50.090;14.420;2024-03-07T07:55:12;100074.63;;;9.08;44.46
67740;BME280;54536;50.090;14.420;2024-03-07T07:57:52;100072.19;;;9.05;44.74
67740;BME280;54536;50.090;14.420;2024-03-07T08:00:21;100072.00;;;9.08;43.75
67740;BME280;54536;50.090;14.420;2024-03-07T08:02:56;100073.91;;;9.06;43.64
67740;BME280;54536;50.090;14.420;2024-03-07T08:05:27;100071.28;;;9.06;43.77
67740;BME280;54536;50.090;14.420;2024-03-07T08:07:57;100073.16;;;9.04;43.60
67740;BME280;54536;50.090;14.420;2024-03-07T08:10:26;100074.00;;;9.05;43.51
67740;BME280;54536;50.090;14.420;2024-03-07T08:12:55;100078.25;;;9.19;43.07
67740;BME280;54536;50.090;14.420;2024-03-07T08:15:21;100073.00;;;9.19;43.02
67740;BME280;54536;50.090;14.420;2024-03-07T08:17:48;100076.75;;;9.27;43.26
67740;BME280;54536;50.090;14.420;2024-03-07T08:20:16;100074.47;;;9.23;42.51
67740;BME280;54536;50.090;14.420;2024-03-07T08:22:44;100072.16;;;9.18;43.32
67740;BME280;54536;50.090;14.420;2024-03-07T08:25:12;100073.75;;;9.21;43.83
67740;BME280;54536;50.090;14.420;2024-03-07T08:27:40;100072.84;;;9.33;43.23
67740;BME280;54536;50.090;14.420;2024-03-07T08:30:09;100065.69;;;9.35;42.66
67740;BME280;54536;50.090;14.420;2024-03-07T08:33:01;100066.72;;;9.45;42.46
67740;BME280;54536;50.090;14.420;2024-03-07T08:35:31;100064.94;;;9.46;43.23
67740;BME280;54536;50.090;14.420;2024-03-07T08:37:57;100062.34;;;9.33;42.63
67740;BME280;54536;50.090;14.420;2024-03-07T08:40:26;100059.00;;;9.31;42.51
67740;BME280;54536;50.090;14.420;2024-03-07T08:42:53;100065.16;;;9.43;42.35
67740;BME280;54536;50.090;14.420;2024-03-07T08:45:20;100061.63;;;9.31;42.13
67740;BME280;54536;50.090;14.420;2024-03-07T08:47:51;100069.19;;;9.35;42.08
67740;BME280;54536;50.090;14.420;2024-03-07T08:50:18;100057.06;;;9.46;41.97
67740;BME280;54536;50.090;14.420;2024-03-07T08:52:45;100067.34;;;9.49;41.55
67740;BME280;54536;50.090;14.420;2024-03-07T08:55:13;100058.56;;;9.37;42.10
67740;BME280;54536;50.090;14.420;2024-03-07T08:57:43;100060.97;;;9.40;41.33
67740;BME280;54536;50.090;14.420;2024-03-07T09:00:14;100057.66;;;9.49;41.65
67740;BME280;54536;50.090;14.420;2024-03-07T09:02:59;100066.16;;;9.53;41.49
67740;BME280;54536;50.090;14.420;2024-03-07T09:05:26;100055.03;;;9.49;41.59
67740;BME280;54536;50.090;14.420;2024-03-07T09:07:54;100049.50;;;9.65;41.94
67740;BME280;54536;50.090;14.420;2024-03-07T09:10:20;100056.78;;;9.73;41.17
67740;BME280;54536;50.090;14.420;2024-03-07T09:12:48;100057.09;;;9.57;41.82
67740;BME280;54536;50.090;14.420;2024-03-07T09:15:15;100055.97;;;9.72;41.71
67740;BME280;54536;50.090;14.420;2024-03-07T09:17:47;100055.00;;;9.73;41.67
67740;BME280;54536;50.090;14.420;2024-03-07T09:20:13;100050.03;;;9.93;41.06
67740;BME280;54536;50.090;14.420;2024-03-07T09:22:45;100063.78;;;9.96;41.01
67740;BME280;54536;50.090;14.420;2024-03-07T09:25:11;100056.41;;;10.13;41.24
67740;BME280;54536;50.090;14.420;2024-03-07T09:27:42;100050.78;;;9.95;40.23
67740;BME280;54536;50.090;14.420;2024-03-07T09:30:09;100057.53;;;9.75;40.67
67740;BME280;54536;50.090;14.420;2024-03-07T09:32:40;100058.03;;;9.91;40.93
67740;BME280;54536;50.090;14.420;2024-03-07T09:35:08;100058.06;;;10.02;40.57
67740;BME280;54536;50.090;14.420;2024-03-07T09:37:39;100059.94;;;9.89;40.63
67740;BME280;54536;50.090;14.420;2024-03-07T09:40:06;100056.47;;;9.89;41.45
67740;BME280;54536;50.090;14.420;2024-03-07T09:42:33;100055.75;;;9.87;41.00
67740;BME280;54536;50.090;14.420;2024-03-07T09:45:02;100055.53;;;9.90;41.23
67740;BME280;54536;50.090;14.420;2024-03-07T09:47:30;100056.75;;;10.08;41.15
67740;BME280;54536;50.090;14.420;2024-03-07T09:49:58;100054.81;;;9.88;40.96
67740;BME280;54536;50.090;14.420;2024-03-07T09:52:26;100059.72;;;9.92;41.08
67740;BME280;54536;50.090;14.420;2024-03-07T09:54:53;100060.69;;;10.02;40.97
67740;BME280;54536;50.090;14.420;2024-03-07T09:57:19;100064.88;;;10.16;41.06
67740;BME280;54536;50.090;14.420;2024-03-07T09:59:47;100057.47;;;9.99;41.14
67740;BME280;54536;50.090;14.420;2024-03-07T10:02:15;100066.09;;;10.12;40.92
67740;BME280;54536;50.090;14.420;2024-03-07T10:04:48;100055.56;;;10.01;40.74
67740;BME280;54536;50.090;14.420;2024-03-07T10:07:17;100057.78;;;9.83;41.05
67740;BME280;54536;50.090;14.420;2024-03-07T10:09:45;100058.13;;;9.78;41.28
67740;BME280;54536;50.090;14.420;2024-03-07T10:12:11;100052.03;;;9.78;41.00
67740;BME280;54536;50.090;14.420;2024-03-07T10:17:14;100054.16;;;9.73;41.56
67740;BME280;54536;50.090;14.420;2024-03-07T10:19:41;100055.44;;;9.67;41.42
67740;BME280;54536;50.090;14.420;2024-03-07T10:22:07;100058.06;;;9.67;41.81
67740;BME280;54536;50.090;14.420;2024-03-07T10:24:33;100066.56;;;9.71;41.99
67740;BME280;54536;50.090;14.420;2024-03-07T10:27:00;100056.13;;;9.58;42.21
67740;BME280;54536;50.090;14.420;2024-03-07T10:29:26;100066.84;;;9.79;41.74
67740;BME280;54536;50.090;14.420;2024-03-07T10:31:52;100061.91;;;9.74;41.80
67740;BME280;54536;50.090;14.420;2024-03-07T10:34:19;100058.44;;;9.74;42.08
67740;BME280;54536;50.090;14.420;2024-03-07T10:36:46;100050.72;;;9.83;41.71
67740;BME280;54536;50.090;14.420;2024-03-07T10:39:12;100056.47;;;9.89;41.92
67740;BME280;54536;50.090;14.420;2024-03-07T10:41:49;100047.53;;;9.91;41.29
67740;BME280;54536;50.090;14.420;2024-03-07T10:44:25;100054.53;;;9.79;40.79
67740;BME280;54536;50.090;14.420;2024-03-07T10:46:54;100054.81;;;9.88;40.34
67740;BME280;54536;50.090;14.420;2024-03-07T10:49:21;100057.09;;;10.03;39.68
67740;BME280;54536;50.090;14.420;2024-03-07T10:52:13;100051.13;;;10.01;39.35
67740;BME280;54536;50.090;14.420;2024-03-07T11:00:26;100056.25;;;9.92;39.68
67740;BME280;54536;50.090;14.420;2024-03-07T11:02:58;100050.63;;;9.96;39.98
67740;BME280;54536;50.090;14.420;2024-03-07T11:05:28;100046.56;;;9.92;39.91
67740;BME280;54536;50.090;14.420;2024-03-07T11:07:58;100056.63;;;9.98;39.73
67740;BME280;54536;50.090;14.420;2024-03-07T11:10:25;100055.94;;;10.07;39.87
67740;BME280;54536;50.090;14.420;2024-03-07T11:12:52;100053.16;;;9.98;40.09
67740;BME280;54536;50.090;14.420;2024-03-07T11:15:23;100048.06;;;10.07;40.31
67740;BME280;54536;50.090;14.420;2024-03-07T11:17:53;100053.31;;;10.07;39.71
67740;BME280;54536;50.090;14.420;2024-03-07T11:22:50;100044.75;;;10.39;39.64
67740;BME280;54536;50.090;14.420;2024-03-07T11:25:21;100038.75;;;10.26;39.59
67740;BME280;54536;50.090;14.420;2024-03-07T11:28:00;100039.06;;;10.10;39.79
67740;BME280;54536;50.090;14.420;2024-03-07T11:30:26;100037.44;;;10.20;40.49
67740;BME280;54536;50.090;14.420;2024-03-07T11:32:54;100029.72;;;10.30;41.00
67740;BME280;54536;50.090;14.420;2024-03-07T11:35:31;100030.78;;;10.39;40.34
67740;BME280;54536;50.090;14.420;2024-03-07T11:37:59;100035.94;;;10.40;39.85
67740;BME280;54536;50.090;14.420;2024-03-07T11:42:53;100026.56;;;10.25;39.89
67740;BME280;54536;50.090;14.420;2024-03-07T11:45:20;100030.41;;;10.32;39.12
67740;BME280;54536;50.090;14.420;2024-03-07T11:48:00;100025.72;;;10.24;39.32
67740;BME280;54536;50.090;14.420;2024-03-07T11:50:33;100020.56;;;10.23;39.10
67740;BME280;54536;50.090;14.420;2024-03-07T11:53:02;100028.16;;;10.27;39.44
67740;BME280;54536;50.090;14.420;2024-03-07T11:55:31;100025.88;;;10.34;39.93
67740;BME280;54536;50.090;14.420;2024-03-07T11:58:10;100023.13;;;10.36;39.89
67740;BME280;54536;50.090;14.420;2024-03-07T12:00:43;100022.75;;;10.29;40.11
67740;BME280;54536;50.090;14.420;2024-03-07T12:03:12;100022.25;;;10.24;40.48
67740;BME280;54536;50.090;14.420;2024-03-07T12:05:48;100013.88;;;10.19;40.47
67740;BME280;54536;50.090;14.420;2024-03-07T12:08:15;100019.16;;;10.07;40.73
67740;BME280;54536;50.090;14.420;2024-03-07T12:10:43;100019.41;;;10.38;40.57
67740;BME280;54536;50.090;14.420;2024-03-07T12:13:11;100020.13;;;10.29;40.52
67740;BME280;54536;50.090;14.420;2024-03-07T12:15:41;100019.28;;;10.17;40.75
67740;BME280;54536;50.090;14.420;2024-03-07T12:18:09;100016.63;;;10.06;40.94
67740;BME280;54536;50.090;14.420;2024-03-07T12:20:40;100024.63;;;10.16;41.08
67740;BME280;54536;50.090;14.420;2024-03-07T12:23:08;100013.28;;;10.04;40.94
67740;BME280;54536;50.090;14.420;2024-03-07T12:25:38;100017.59;;;10.05;40.93
67740;BME280;54536;50.090;14.420;2024-03-07T12:28:11;100015.06;;;10.03;41.00
67740;BME280;54536;50.090;14.420;2024-03-07T12:30:47;100017.44;;;10.06;40.56
67740;BME280;54536;50.090;14.420;2024-03-07T12:33:16;100012.47;;;10.15;40.28
67740;BME280;54536;50.090;14.420;2024-03-07T12:35:53;100010.66;;;10.04;39.83
67740;BME280;54536;50.090;14.420;2024-03-07T12:38:26;100019.75;;;10.11;39.64
67740;BME280;54536;50.090;14.420;2024-03-07T12:41:09;100011.41;;;10.17;40.44
67740;BME280;54536;50.090;14.420;2024-03-07T12:43:43;100014.09;;;9.93;40.65
67740;BME280;54536;50.090;14.420;2024-03-07T12:46:12;100013.28;;;10.04;40.74
67740;BME280;54536;50.090;14.420;2024-03-07T12:48:41;100014.81;;;10.06;40.16
67740;BME280;54536;50.090;14.420;2024-03-07T12:51:07;100017.22;;;10.09;40.06
67740;BME280;54536;50.090;14.420;2024-03-07T12:53:37;100006.72;;;10.09;39.95
67740;BME280;54536;50.090;14.420;2024-03-07T12:56:03;100008.88;;;10.16;39.70
67740;BME280;54536;50.090;14.420;2024-03-07T12:58:29;100005.78;;;10.22;39.79
67740;BME280;54536;50.090;14.420;2024-03-07T13:00:56;100009.22;;;10.22;39.60
67740;BME280;54536;50.090;14.420;2024-03-07T13:03:26;100005.06;;;10.42;39.93
67740;BME280;54536;50.090;14.420;2024-03-07T13:05:56;100007.66;;;10.20;39.95
67740;BME280;54536;50.090;14.420;2024-03-07T13:08:27;100006.25;;;10.16;39.45
67740;BME280;54536;50.090;14.420;2024-03-07T13:10:55;100003.66;;;10.27;39.18